Ext Jard de San Lorenzo, Puerto Rico
Current Conditions -  °F | °C
As of 6:56 PM on Wednesday 17 Dec 2014 (Local Time) from TJSJ Reporting Station
Scattered Clouds Scattered Clouds  
Wind Chill: 79°   Ceiling: Unl
Heat Index: 81°   Visibility: 10mi
Dew Point: 66°   Wind: 6mph
Humidity: 64%   Direction: 10°N
Pressure: 30.02"   Gusts: NA
Location:  18.1909°N, 65.9618°W
Report Text: TJSJ 172256Z 01005KT 10SM SCT031 26/19 A3002 RMK AO2 SLP165 T02610189
Loading
Personal Weather Stations






























Interactive Weather Map New forecast layout! Learn more

10-Day Weather Forecast

Advertisements
Track Severe Weather on mobile